Time;durP1;ratioP1;P1;durP2;ratioP2;P2;SDS_P1;SDS_P2;PMS_P1;PMS_P2;Temp;Humidity;BMP_temperature;BMP_pressure;BME280_temperature;BME280_humidity;BME280_pressure;Samples;Min_cycle;Max_cycle;Signal;HPM_P1;HPM_P2
2021/11/26 00:01:58;;;;;;;0.10;0.10;;;;;;;8.09;67.66;100851.00;5010922;28;20041;-87
2021/11/26 00:04:25;;;;;;;0.28;0.28;;;;;;;8.08;67.88;100843.97;5015052;28;20068;-87
2021/11/26 00:06:52;;;;;;;0.10;0.10;;;;;;;8.10;67.34;100848.34;5003920;28;20038;-89
2021/11/26 00:09:26;;;;;;;0.10;0.10;;;;;;;8.12;68.02;100836.91;4998871;28;20045;-89
2021/11/26 00:11:53;;;;;;;0.10;0.10;;;;;;;8.06;67.56;100836.06;5004512;28;20080;-91
2021/11/26 00:14:23;;;;;;;0.10;0.10;;;;;;;8.08;67.26;100844.81;5000580;28;20038;-89
2021/11/26 00:16:56;;;;;;;0.10;0.10;;;;;;;8.04;67.06;100824.66;5004270;28;20026;-89
2021/11/26 00:19:24;;;;;;;0.10;0.10;;;;;;;8.03;67.05;100814.97;5002121;28;20037;-88
2021/11/26 00:21:50;;;;;;;0.30;0.30;;;;;;;8.03;66.89;100806.19;5001773;28;20030;-89
2021/11/26 00:24:17;;;;;;;0.10;0.10;;;;;;;7.97;67.17;100809.75;5006412;28;20031;-88
2021/11/26 00:26:45;;;;;;;0.10;0.10;;;;;;;7.97;67.07;100801.84;5009778;28;20444;-89
2021/11/26 00:29:12;;;;;;;0.10;0.10;;;;;;;7.91;67.36;100800.16;5005319;28;20034;-88
2021/11/26 00:31:39;;;;;;;0.10;0.10;;;;;;;7.89;67.71;100791.38;5007342;28;20131;-89
2021/11/26 00:34:07;;;;;;;0.10;0.10;;;;;;;7.84;67.75;100781.75;5006042;28;20034;-90
2021/11/26 00:36:34;;;;;;;0.10;0.10;;;;;;;7.84;67.59;100784.38;5009003;28;20053;-89
2021/11/26 00:39:03;;;;;;;0.10;0.10;;;;;;;7.84;68.01;100771.19;5008760;28;20026;-89
2021/11/26 00:41:29;;;;;;;0.10;0.10;;;;;;;7.80;68.02;100764.22;5008675;28;20065;-87
2021/11/26 00:43:55;;;;;;;0.10;0.10;;;;;;;7.81;68.04;100765.97;5003207;28;20053;-88
2021/11/26 00:46:22;;;;;;;0.10;0.10;;;;;;;7.83;67.84;100765.06;5010437;28;20046;-86
2021/11/26 00:48:48;;;;;;;0.10;0.10;;;;;;;7.87;67.92;100772.03;5001106;28;20038;-89
2021/11/26 00:51:15;;;;;;;0.10;0.10;;;;;;;7.91;67.67;100780.81;5005362;28;20042;-88
2021/11/26 00:53:41;;;;;;;0.10;0.10;;;;;;;7.89;68.26;100777.31;5018203;28;20033;-88
2021/11/26 00:56:07;;;;;;;0.10;0.10;;;;;;;7.88;68.41;100778.22;5001862;28;20035;-88
2021/11/26 00:58:34;;;;;;;0.10;0.10;;;;;;;7.91;68.27;100768.50;5001794;28;20038;-87
2021/11/26 01:01:00;;;;;;;0.10;0.10;;;;;;;7.96;68.10;100767.56;5007353;28;20553;-87
2021/11/26 01:03:27;;;;;;;0.10;0.10;;;;;;;7.98;68.58;100769.28;5002714;28;20038;-89
2021/11/26 01:05:54;;;;;;;0.10;0.10;;;;;;;8.04;67.96;100758.69;5006954;28;20030;-89
2021/11/26 01:08:20;;;;;;;0.10;0.10;;;;;;;8.09;67.68;100753.38;5005581;28;20038;-88
2021/11/26 01:10:48;;;;;;;0.10;0.10;;;;;;;8.14;67.93;100748.91;5005649;28;20178;-88
2021/11/26 01:13:15;;;;;;;0.10;0.10;;;;;;;8.18;68.35;100747.09;5010163;28;20034;-88
2021/11/26 01:15:43;;;;;;;0.10;0.10;;;;;;;8.21;68.02;100737.38;5011827;28;20477;-88
2021/11/26 01:18:11;;;;;;;0.10;0.10;;;;;;;8.26;67.93;100737.31;5005226;28;20034;-88
2021/11/26 01:20:37;;;;;;;0.10;0.10;;;;;;;8.30;68.51;100732.88;5005543;28;20485;-89
2021/11/26 01:23:05;;;;;;;0.10;0.10;;;;;;;8.31;68.36;100732.88;5008404;28;20034;-88
2021/11/26 01:25:32;;;;;;;0.10;0.10;;;;;;;8.32;68.16;100726.66;5009867;28;20026;-89
2021/11/26 01:27:58;;;;;;;0.85;0.85;;;;;;;8.31;68.31;100732.88;5005828;28;20357;-88
2021/11/26 01:30:30;;;;;;;0.57;0.57;;;;;;;8.28;68.00;100735.53;5004821;28;20408;-88
2021/11/26 01:32:59;;;;;;;1.13;0.68;;;;;;;8.23;68.03;100732.09;5006025;28;20058;-88
2021/11/26 01:35:26;;;;;;;0.10;0.10;;;;;;;8.24;68.26;100723.28;5007088;28;20084;-87
2021/11/26 01:37:53;;;;;;;0.10;0.10;;;;;;;8.26;68.01;100713.56;5005658;28;20413;-88
2021/11/26 01:40:21;;;;;;;0.10;0.10;;;;;;;8.29;68.22;100707.34;5008029;28;20038;-88
2021/11/26 01:42:52;;;;;;;0.10;0.10;;;;;;;8.33;68.66;100696.75;5004763;28;20027;-89
2021/11/26 01:45:18;;;;;;;0.10;0.10;;;;;;;8.35;68.71;100673.84;5006924;28;20038;-87
2021/11/26 01:47:45;;;;;;;0.15;0.15;;;;;;;8.37;68.54;100672.06;5005224;28;20037;-89
2021/11/26 01:50:13;;;;;;;0.10;0.10;;;;;;;8.37;68.04;100657.97;5009271;28;20559;-88
2021/11/26 01:52:40;;;;;;;0.10;0.10;;;;;;;8.37;68.13;100653.59;5006704;28;20032;-87
2021/11/26 01:55:08;;;;;;;0.10;0.10;;;;;;;8.37;68.20;100650.06;5003059;28;20045;-88
2021/11/26 01:57:35;;;;;;;0.10;0.10;;;;;;;8.38;68.62;100650.03;5009382;28;20508;-88
2021/11/26 02:00:05;;;;;;;0.15;0.15;;;;;;;8.39;68.44;100643.88;5003463;28;20034;-88
2021/11/26 02:02:31;;;;;;;0.10;0.10;;;;;;;8.41;68.44;100638.56;5008746;28;20030;-87
2021/11/26 02:04:57;;;;;;;0.10;0.10;;;;;;;8.42;68.09;100628.00;5009488;28;20042;-88
2021/11/26 02:07:24;;;;;;;0.10;0.10;;;;;;;8.45;68.48;100631.47;5010758;28;20041;-87
2021/11/26 02:09:50;;;;;;;0.10;0.10;;;;;;;8.45;68.69;100636.75;5012608;28;20056;-87
2021/11/26 02:12:16;;;;;;;0.63;0.63;;;;;;;8.37;68.02;100637.75;4991898;28;20036;-86
2021/11/26 02:14:43;;;;;;;0.10;0.10;;;;;;;8.35;68.11;100643.91;5006571;28;20113;-86
2021/11/26 02:17:26;;;;;;;0.10;0.10;;;;;;;8.26;68.55;100652.84;5006975;28;20482;-87
2021/11/26 02:20:00;;;;;;;0.10;0.10;;;;;;;8.08;67.88;100659.25;5005629;28;20037;-86
2021/11/26 02:22:31;;;;;;;0.10;0.10;;;;;;;7.97;67.87;100659.38;5022065;28;20358;-87
2021/11/26 02:25:08;;;;;;;0.20;0.20;;;;;;;7.88;68.45;100635.75;5047592;22;20128;-77
2021/11/26 02:27:36;;;;;;;0.17;0.17;;;;;;;7.76;67.82;100632.38;5029449;28;20156;-78
2021/11/26 02:30:13;;;;;;;0.10;0.10;;;;;;;7.76;67.69;100635.00;5018099;28;20030;-77
2021/11/26 02:32:39;;;;;;;0.10;0.10;;;;;;;7.73;67.93;100627.13;5019499;28;20073;-77
2021/11/26 02:35:06;;;;;;;0.10;0.10;;;;;;;7.73;67.93;100621.00;5016143;28;20034;-78
2021/11/26 02:37:32;;;;;;;0.17;0.17;;;;;;;7.74;68.02;100607.78;5034425;28;20496;-78
2021/11/26 02:39:58;;;;;;;0.10;0.10;;;;;;;7.74;68.44;100594.59;5034496;28;20488;-77
2021/11/26 02:42:26;;;;;;;0.30;0.30;;;;;;;7.74;68.37;100586.69;5026905;28;20080;-79
2021/11/26 02:44:52;;;;;;;0.10;0.10;;;;;;;7.76;68.38;100566.44;5034854;28;20033;-80
2021/11/26 02:47:19;;;;;;;0.10;0.10;;;;;;;7.78;68.49;100556.72;5034440;28;20076;-79
2021/11/26 02:49:45;;;;;;;0.13;0.13;;;;;;;7.83;67.95;100547.91;5034714;28;20025;-80
2021/11/26 02:52:11;;;;;;;0.10;0.10;;;;;;;7.86;67.92;100542.56;5034715;28;20112;-79
2021/11/26 02:54:37;;;;;;;0.10;0.10;;;;;;;7.87;67.63;100536.41;5034383;28;20127;-80
2021/11/26 02:57:04;;;;;;;0.10;0.10;;;;;;;7.87;68.01;100536.41;5034511;28;20053;-79
2021/11/26 02:59:30;;;;;;;0.10;0.10;;;;;;;7.88;67.66;100538.16;5034701;28;20056;-79
2021/11/26 03:01:56;;;;;;;0.10;0.10;;;;;;;7.90;67.79;100537.25;5033965;28;20104;-80
2021/11/26 03:04:22;;;;;;;0.10;0.10;;;;;;;7.91;67.67;100530.19;5034125;28;20105;-80
2021/11/26 03:07:00;;;;;;;0.10;0.10;;;;;;;7.97;67.64;100530.09;5034248;28;20535;-80
2021/11/26 03:09:26;;;;;;;0.10;0.10;;;;;;;7.90;68.21;100523.16;5034043;28;20033;-79
2021/11/26 03:11:52;;;;;;;0.10;0.10;;;;;;;7.90;67.55;100517.88;5033931;28;20410;-78
2021/11/26 03:14:18;;;;;;;0.10;0.10;;;;;;;7.89;68.09;100510.88;5034278;28;20510;-78
2021/11/26 03:16:44;;;;;;;0.10;0.10;;;;;;;7.89;67.92;100502.97;5035451;28;20040;-78
2021/11/26 03:19:10;;;;;;;0.20;0.20;;;;;;;7.86;68.07;100497.72;5035065;28;20033;-79
2021/11/26 03:21:37;;;;;;;0.10;0.10;;;;;;;7.83;67.84;100496.00;5040505;28;20496;-79
2021/11/26 03:24:03;;;;;;;0.10;0.10;;;;;;;7.80;68.34;100488.16;5047778;28;20090;-79
2021/11/26 03:26:29;;;;;;;0.10;0.10;;;;;;;7.74;68.38;100483.81;5032081;28;20476;-81
2021/11/26 03:28:56;;;;;;;0.10;0.10;;;;;;;7.68;68.11;100476.00;5043763;28;20032;-80
2021/11/26 03:31:22;;;;;;;0.15;0.15;;;;;;;7.66;67.91;100472.50;5044830;28;20037;-79
2021/11/26 03:33:48;;;;;;;0.10;0.10;;;;;;;7.60;68.07;100467.31;5033507;28;20056;-79
2021/11/26 03:36:15;;;;;;;0.10;0.10;;;;;;;7.57;68.14;100457.69;5034823;28;20056;-79
2021/11/26 03:38:41;;;;;;;0.40;0.40;;;;;;;7.54;68.28;100451.56;5043400;28;20108;-79
2021/11/26 03:41:07;;;;;;;0.13;0.13;;;;;;;7.50;68.05;100439.34;5039114;28;20067;-78
2021/11/26 03:43:34;;;;;;;0.10;0.10;;;;;;;7.48;68.10;100435.84;5041708;28;20120;-78
2021/11/26 03:46:00;;;;;;;0.20;0.20;;;;;;;7.44;68.29;100433.25;5034351;28;20029;-78
2021/11/26 03:48:27;;;;;;;0.10;0.10;;;;;;;7.45;67.84;100427.09;5021407;28;20033;-78
2021/11/26 03:50:53;;;;;;;0.15;0.15;;;;;;;7.42;68.52;100421.84;5022207;28;20025;-78
2021/11/26 03:53:20;;;;;;;0.10;0.10;;;;;;;7.43;68.30;100415.69;5055065;22;20017;-90
2021/11/26 03:55:46;;;;;;;0.10;0.10;;;;;;;7.44;68.28;100420.09;5039797;28;20056;-86
2021/11/26 03:58:12;;;;;;;0.10;0.10;;;;;;;7.43;68.03;100402.53;5049576;28;20021;-90
2021/11/26 04:00:38;;;;;;;0.13;0.13;;;;;;;7.45;68.47;100406.00;5031915;28;20427;-88
2021/11/26 04:03:05;;;;;;;0.10;0.10;;;;;;;7.44;68.21;100399.00;5037216;28;20036;-89
2021/11/26 04:05:31;;;;;;;0.10;0.10;;;;;;;7.46;67.78;100398.97;5021419;28;20033;-89
2021/11/26 04:07:58;;;;;;;0.10;0.10;;;;;;;7.45;68.51;100389.31;5024591;28;20037;-90
2021/11/26 04:10:25;;;;;;;0.17;0.17;;;;;;;7.41;68.43;100377.97;5025075;28;20030;-89
2021/11/26 04:12:52;;;;;;;0.10;0.10;;;;;;;7.41;68.19;100375.34;5023874;28;20030;-90
2021/11/26 04:15:19;;;;;;;0.10;0.10;;;;;;;7.36;68.67;100374.50;5021270;28;20041;-89
2021/11/26 04:17:48;;;;;;;0.20;0.20;;;;;;;7.36;68.22;100363.09;5020742;28;20485;-89
2021/11/26 04:20:16;;;;;;;0.10;0.10;;;;;;;7.35;68.32;100362.25;5028099;28;20034;-90
2021/11/26 04:22:43;;;;;;;0.10;0.10;;;;;;;7.35;68.38;100353.44;5025030;28;20022;-89
2021/11/26 04:25:13;;;;;;;0.10;0.10;;;;;;;7.36;68.23;100352.56;5021534;28;20029;-90
2021/11/26 04:27:39;;;;;;;0.10;0.10;;;;;;;7.34;68.54;100351.69;5013434;28;20045;-89
2021/11/26 04:30:08;;;;;;;0.15;0.15;;;;;;;7.32;68.69;100349.09;5019352;28;20556;-89
2021/11/26 04:32:35;;;;;;;0.20;0.20;;;;;;;7.31;68.51;100351.75;5021152;28;20042;-89
2021/11/26 04:35:01;;;;;;;0.10;0.10;;;;;;;7.31;68.25;100342.06;5028614;28;20384;-88
2021/11/26 04:37:27;;;;;;;0.20;0.20;;;;;;;7.31;68.61;100330.69;5019763;28;20034;-89
2021/11/26 04:39:53;;;;;;;0.10;0.10;;;;;;;7.29;68.01;100321.03;5018998;28;20037;-90
2021/11/26 04:42:20;;;;;;;0.10;0.10;;;;;;;7.24;68.70;100317.59;5024560;28;20481;-89
2021/11/26 04:44:46;;;;;;;0.17;0.17;;;;;;;7.26;68.54;100314.94;5028753;28;20098;-88
2021/11/26 04:47:12;;;;;;;0.10;0.10;;;;;;;7.24;68.11;100308.78;5024427;28;20061;-88
2021/11/26 04:49:38;;;;;;;0.10;0.10;;;;;;;7.22;68.11;100303.56;5020038;28;20034;-90
2021/11/26 04:52:05;;;;;;;0.20;0.20;;;;;;;7.26;68.33;100299.13;5025519;28;20109;-89
2021/11/26 04:54:31;;;;;;;0.10;0.10;;;;;;;7.23;67.79;100301.81;5025602;28;20040;-90
2021/11/26 04:56:57;;;;;;;0.17;0.17;;;;;;;7.15;67.66;100291.34;5027533;28;20155;-89
2021/11/26 04:59:24;;;;;;;0.10;0.10;;;;;;;7.22;67.79;100284.25;5026374;28;20057;-89
2021/11/26 05:01:50;;;;;;;0.10;0.10;;;;;;;7.22;67.53;100277.22;5019443;28;20033;-89
2021/11/26 05:04:17;;;;;;;0.40;0.40;;;;;;;7.19;67.14;100261.47;5019743;28;20084;-88
2021/11/26 05:06:45;;;;;;;0.20;0.20;;;;;;;7.16;66.49;100263.28;5020498;28;20088;-91
2021/11/26 05:09:11;;;;;;;0.10;0.10;;;;;;;7.18;66.34;100250.91;5023722;28;20501;-89
2021/11/26 05:11:38;;;;;;;0.15;0.15;;;;;;;7.13;66.10;100257.16;5022803;28;20068;-90
2021/11/26 05:14:06;;;;;;;0.10;0.10;;;;;;;7.11;65.09;100251.00;5027558;28;20037;-89
2021/11/26 05:16:32;;;;;;;0.10;0.10;;;;;;;7.15;64.88;100235.19;5023407;28;20086;-89
2021/11/26 05:18:59;;;;;;;0.10;0.10;;;;;;;7.17;64.92;100225.50;5024908;28;20071;-90
2021/11/26 05:21:25;;;;;;;0.10;0.10;;;;;;;7.17;64.55;100230.75;5022519;28;20038;-89
2021/11/26 05:23:52;;;;;;;0.17;0.17;;;;;;;7.13;64.90;100222.91;5026206;28;20030;-89
2021/11/26 05:26:18;;;;;;;0.20;0.20;;;;;;;7.10;63.58;100215.06;5024153;28;20080;-89
2021/11/26 05:28:44;;;;;;;0.10;0.10;;;;;;;7.07;64.95;100217.72;5016991;28;20417;-88
2021/11/26 05:31:10;;;;;;;0.20;0.20;;;;;;;7.13;64.50;100201.81;5020937;28;20528;-90
2021/11/26 05:33:36;;;;;;;0.13;0.13;;;;;;;7.09;63.93;100197.50;5021304;28;20152;-89
2021/11/26 05:36:02;;;;;;;0.10;0.10;;;;;;;7.01;63.91;100191.47;5028386;28;20104;-90
2021/11/26 05:38:29;;;;;;;0.15;0.15;;;;;;;7.01;63.60;100191.47;5021082;28;20026;-90
2021/11/26 05:40:55;;;;;;;0.10;0.10;;;;;;;7.00;63.44;100187.09;5028018;28;20111;-90
2021/11/26 05:43:21;;;;;;;0.10;0.10;;;;;;;6.97;63.59;100176.63;5027773;28;20088;-89
2021/11/26 05:45:47;;;;;;;0.10;0.10;;;;;;;7.03;63.90;100166.00;5027284;28;20044;-89
2021/11/26 05:48:13;;;;;;;0.10;0.10;;;;;;;7.00;64.03;100163.38;5031412;28;20558;-89
2021/11/26 05:50:40;;;;;;;0.10;0.10;;;;;;;7.00;63.78;100160.75;5023872;28;20033;-90
2021/11/26 05:53:06;;;;;;;0.10;0.10;;;;;;;7.01;63.39;100154.59;5023998;28;20026;-89
2021/11/26 05:55:33;;;;;;;0.20;0.20;;;;;;;7.00;63.59;100142.31;5027533;28;20534;-90
2021/11/26 05:58:01;;;;;;;0.40;0.40;;;;;;;6.99;62.81;100137.09;5031729;28;20069;-89
2021/11/26 06:00:29;;;;;;;0.15;0.15;;;;;;;6.98;64.05;100133.59;5028924;28;20025;-91
2021/11/26 06:02:55;;;;;;;0.20;0.20;;;;;;;6.91;63.85;100131.94;5024561;28;20088;-90
2021/11/26 06:05:23;;;;;;;0.10;0.10;;;;;;;6.93;63.83;100133.66;5033246;28;20144;-90
2021/11/26 06:07:49;;;;;;;0.10;0.10;;;;;;;6.95;64.04;100123.97;5026723;28;20492;-90
2021/11/26 06:10:16;;;;;;;0.10;0.10;;;;;;;6.90;63.13;100112.66;5029079;28;20065;-88
2021/11/26 06:12:45;;;;;;;0.10;0.10;;;;;;;6.92;63.78;100110.00;5014977;28;20033;-89
2021/11/26 06:15:12;;;;;;;0.10;0.10;;;;;;;6.91;62.50;100105.63;5028247;28;20473;-89
2021/11/26 06:17:40;;;;;;;0.30;0.30;;;;;;;6.90;63.42;100103.88;5030600;28;20116;-89
2021/11/26 06:20:08;;;;;;;0.20;0.20;;;;;;;6.90;63.96;100098.59;5026564;28;20121;-89
2021/11/26 06:22:35;;;;;;;0.20;0.20;;;;;;;6.91;63.24;100092.44;5033588;28;20112;-89
2021/11/26 06:25:01;;;;;;;0.10;0.10;;;;;;;6.89;63.40;100081.94;5021259;28;20475;-88
2021/11/26 06:27:27;;;;;;;0.20;0.20;;;;;;;6.88;63.53;100079.31;5026088;28;20404;-89
2021/11/26 06:29:53;;;;;;;0.20;0.20;;;;;;;6.83;63.59;100068.88;5028804;28;20398;-90
2021/11/26 06:32:20;;;;;;;0.10;0.10;;;;;;;6.82;63.90;100068.88;5023115;28;20041;-90
2021/11/26 06:34:46;;;;;;;0.10;0.10;;;;;;;6.76;64.15;100067.25;5025935;28;20026;-88
2021/11/26 06:37:12;;;;;;;0.17;0.17;;;;;;;6.74;63.49;100059.38;5032934;28;20382;-89
2021/11/26 06:39:39;;;;;;;0.10;0.10;;;;;;;6.78;64.33;100055.78;5031176;28;20041;-89
2021/11/26 06:42:05;;;;;;;0.10;0.10;;;;;;;6.74;63.75;100056.75;5028499;28;20025;-89
2021/11/26 06:44:31;;;;;;;1.25;1.05;;;;;;;6.73;62.95;100052.38;5031942;28;20025;-89
2021/11/26 06:46:57;;;;;;;0.10;0.10;;;;;;;6.77;63.56;100038.25;5005020;28;20388;-89
2021/11/26 06:49:23;;;;;;;0.10;0.10;;;;;;;6.72;63.27;100032.19;5002445;28;20163;-88
2021/11/26 06:51:50;;;;;;;0.15;0.15;;;;;;;6.75;63.68;100033.91;5026109;28;20033;-89
2021/11/26 06:54:16;;;;;;;0.10;0.10;;;;;;;6.71;63.21;100033.09;5024469;28;20026;-90
2021/11/26 06:56:42;;;;;;;0.50;0.50;;;;;;;6.72;63.25;100029.56;5025561;28;20056;-86
2021/11/26 06:59:08;;;;;;;0.10;0.10;;;;;;;6.71;62.82;100022.56;5028313;28;20038;-89
2021/11/26 07:01:34;;;;;;;0.10;0.10;;;;;;;6.75;62.82;100016.38;5024748;28;20034;-91
2021/11/26 07:04:01;;;;;;;0.20;0.20;;;;;;;6.85;62.95;100008.28;5027696;28;20033;-91
2021/11/26 07:06:27;;;;;;;0.10;0.10;;;;;;;6.83;62.55;100015.34;5024580;28;20354;-87
2021/11/26 07:08:53;;;;;;;0.20;0.20;;;;;;;6.85;63.24;100011.78;5023592;28;20087;-88
2021/11/26 07:11:19;;;;;;;0.10;0.10;;;;;;;6.86;62.84;99999.50;5019215;28;20528;-89
2021/11/26 07:13:45;;;;;;;0.10;0.10;;;;;;;6.86;62.75;99988.97;5017092;28;20068;-92
2021/11/26 07:16:12;;;;;;;0.20;0.20;;;;;;;6.88;63.11;99993.31;5019622;28;20036;-90
2021/11/26 07:18:38;;;;;;;0.20;0.20;;;;;;;6.83;62.47;99989.00;5021070;28;20033;-89
2021/11/26 07:21:04;;;;;;;0.20;0.20;;;;;;;6.85;62.15;99976.69;4999969;28;20426;-86
2021/11/26 07:23:30;;;;;;;0.10;0.10;;;;;;;6.89;62.34;99973.09;5019765;28;20057;-93
2021/11/26 07:25:56;;;;;;;0.10;0.10;;;;;;;6.85;62.18;99968.78;5023606;28;20057;-92
2021/11/26 07:28:24;;;;;;;0.10;0.10;;;;;;;6.84;62.61;99953.88;5019119;28;20048;-90
2021/11/26 07:30:50;;;;;;;0.10;0.10;;;;;;;6.87;62.72;99954.69;5021331;28;20026;-91
2021/11/26 07:33:16;;;;;;;0.10;0.10;;;;;;;6.89;62.71;99941.50;5020724;28;20041;-90
2021/11/26 07:35:42;;;;;;;0.20;0.20;;;;;;;6.88;62.90;99935.38;5020786;28;20032;-91
2021/11/26 07:38:09;;;;;;;0.20;0.20;;;;;;;6.95;62.76;99938.75;5022193;28;20038;-91
2021/11/26 07:40:35;;;;;;;0.20;0.20;;;;;;;6.97;62.93;99923.78;5020152;28;20041;-90
2021/11/26 07:43:02;;;;;;;0.10;0.10;;;;;;;6.84;62.77;99924.94;5028487;28;20037;-91
2021/11/26 07:45:28;;;;;;;0.10;0.10;;;;;;;6.91;62.88;99916.88;5028694;28;20033;-87
2021/11/26 07:47:54;;;;;;;0.10;0.10;;;;;;;6.88;62.88;99919.56;5028295;28;20873;-93
2021/11/26 07:50:20;;;;;;;0.17;0.17;;;;;;;6.89;62.55;99909.91;5030532;28;20070;-90
2021/11/26 07:52:47;;;;;;;0.22;0.22;;;;;;;6.94;63.00;99915.94;5031607;28;20130;-93
2021/11/26 07:55:13;;;;;;;0.10;0.10;;;;;;;6.96;63.05;99908.88;5028534;28;20047;-93
2021/11/26 07:57:41;;;;;;;0.10;0.10;;;;;;;7.03;63.10;99901.72;5027093;28;20037;-93
2021/11/26 08:00:09;;;;;;;0.10;0.10;;;;;;;7.00;63.18;99892.09;5030493;28;20026;-92
2021/11/26 08:02:35;;;;;;;0.10;0.10;;;;;;;7.05;62.94;99890.28;5021270;28;20064;-93
2021/11/26 08:05:01;;;;;;;0.10;0.10;;;;;;;7.08;63.26;99884.94;5019419;28;20030;-91
2021/11/26 08:07:27;;;;;;;0.10;0.10;;;;;;;7.10;63.24;99875.25;5016966;28;20084;-92
2021/11/26 08:09:53;;;;;;;0.10;0.10;;;;;;;7.13;63.46;99869.03;5025573;28;20056;-86
2021/11/26 08:12:20;;;;;;;0.10;0.10;;;;;;;7.15;63.21;99867.22;5027318;28;20481;-86
2021/11/26 08:14:48;;;;;;;1.27;0.30;;;;;;;7.22;62.93;99865.34;5020344;28;20104;-93
2021/11/26 08:17:14;;;;;;;0.10;0.10;;;;;;;7.21;63.20;99853.06;5020033;28;20030;-92
2021/11/26 08:19:40;;;;;;;0.10;0.10;;;;;;;7.17;63.52;99862.78;5027662;28;20120;-92
2021/11/26 08:22:06;;;;;;;0.17;0.17;;;;;;;7.23;64.07;99840.72;5026505;28;20362;-96
2021/11/26 08:24:51;;;;;;;0.10;0.10;;;;;;;7.27;64.11;99827.44;5031228;28;20494;-95
2021/11/26 08:27:18;;;;;;;0.10;0.10;;;;;;;7.30;64.23;99826.47;5024487;28;20045;-95
2021/11/26 08:29:44;;;;;;;0.10;0.10;;;;;;;7.25;64.83;99823.09;5028589;28;20095;-91
2021/11/26 08:32:10;;;;;;;0.10;0.10;;;;;;;7.28;64.69;99812.50;5028498;28;20029;-94
2021/11/26 08:34:36;;;;;;;0.10;0.10;;;;;;;7.35;64.80;99803.56;5028290;28;20033;-94
2021/11/26 08:37:02;;;;;;;0.25;0.25;;;;;;;7.36;64.70;99805.25;5030745;28;20033;-93
2021/11/26 08:39:28;;;;;;;0.20;0.20;;;;;;;7.38;64.96;99795.56;5029132;28;20064;-94
2021/11/26 08:41:55;;;;;;;0.10;0.10;;;;;;;7.40;65.07;99793.78;5029490;28;20033;-89
2021/11/26 08:44:21;;;;;;;0.20;0.20;;;;;;;7.37;64.96;99785.91;5028024;28;20026;-94
2021/11/26 08:46:47;;;;;;;0.10;0.10;;;;;;;7.31;64.45;99780.78;5031768;28;20022;-95
2021/11/26 08:49:13;;;;;;;0.10;0.10;;;;;;;7.37;64.21;99778.00;5032382;28;20493;-94
2021/11/26 08:51:42;;;;;;;0.10;0.10;;;;;;;7.39;63.81;99776.22;5028317;28;20033;-92
2021/11/26 08:54:08;;;;;;;0.10;0.10;;;;;;;7.31;64.02;99769.41;5028192;28;20060;-91
2021/11/26 08:56:35;;;;;;;0.65;0.65;;;;;;;7.37;64.21;99764.84;5029016;28;20033;-92
2021/11/26 08:59:02;;;;;;;0.17;0.17;;;;;;;7.38;63.95;99761.31;5025758;28;20030;-92
2021/11/26 09:01:33;;;;;;;0.20;0.20;;;;;;;7.52;63.59;99745.16;5007029;28;20037;-85
2021/11/26 09:03:59;;;;;;;0.10;0.10;;;;;;;7.37;63.67;99742.91;5025719;28;20030;-91
2021/11/26 09:06:26;;;;;;;0.10;0.10;;;;;;;7.42;63.35;99739.22;5029795;28;20029;-85
2021/11/26 09:08:52;;;;;;;0.10;0.10;;;;;;;7.40;63.61;99738.44;5029202;28;20040;-82
2021/11/26 09:11:20;;;;;;;0.10;0.10;;;;;;;7.45;63.82;99728.63;5030029;28;20041;-86
2021/11/26 09:13:46;;;;;;;0.17;0.17;;;;;;;7.42;63.60;99733.97;4993286;28;20502;-89
2021/11/26 09:16:13;;;;;;;1.25;1.25;;;;;;;7.37;64.06;99711.28;5022719;28;20034;-89
2021/11/26 09:18:39;;;;;;;0.10;0.10;;;;;;;7.40;63.97;99701.53;5028687;28;20041;-88
2021/11/26 09:21:05;;;;;;;0.13;0.13;;;;;;;7.45;63.14;99694.38;5028780;28;20057;-91
2021/11/26 09:23:32;;;;;;;0.10;0.10;;;;;;;7.31;63.35;99696.47;5010985;28;20061;-93
2021/11/26 09:25:59;;;;;;;0.10;0.10;;;;;;;7.33;63.54;99693.78;4990100;28;20080;-94
2021/11/26 09:28:25;;;;;;;0.38;0.38;;;;;;;7.37;63.44;99693.69;5022257;28;20557;-92
2021/11/26 09:30:51;;;;;;;0.10;0.10;;;;;;;7.47;63.43;99677.66;5026448;28;20036;-91
2021/11/26 09:33:18;;;;;;;0.17;0.17;;;;;;;7.39;63.55;99683.97;5031713;28;20048;-92
2021/11/26 09:35:45;;;;;;;0.10;0.10;;;;;;;7.47;63.54;99677.66;5031872;28;20041;-91
2021/11/26 09:38:12;;;;;;;0.10;0.10;;;;;;;7.49;63.25;99660.91;5031412;28;20034;-95
2021/11/26 09:40:38;;;;;;;0.90;0.90;;;;;;;7.47;63.37;99662.69;5017203;28;20068;-92
2021/11/26 09:43:06;;;;;;;0.20;0.20;;;;;;;7.48;63.20;99659.16;5031965;28;20495;-89
2021/11/26 09:45:33;;;;;;;0.10;0.10;;;;;;;7.57;63.24;99650.16;5032892;28;20048;-90
2021/11/26 09:48:01;;;;;;;0.35;0.35;;;;;;;7.49;63.42;99646.84;5031829;28;20040;-90
2021/11/26 09:50:32;;;;;;;0.20;0.20;;;;;;;7.60;62.92;99634.22;5015767;28;20083;-91
2021/11/26 09:53:11;;;;;;;0.98;0.98;;;;;;;7.67;62.64;99630.53;5026978;28;20033;-96
2021/11/26 09:55:37;;;;;;;0.10;0.10;;;;;;;7.57;62.60;99629.91;5033869;28;20044;-96
2021/11/26 09:58:04;;;;;;;0.10;0.10;;;;;;;7.55;62.81;99620.31;5027601;28;20033;-93
2021/11/26 10:00:30;;;;;;;0.20;0.20;;;;;;;7.74;62.28;99620.69;5034615;28;20037;-96
2021/11/26 10:02:58;;;;;;;0.13;0.13;;;;;;;7.67;62.35;99612.06;5032494;28;20022;-91
2021/11/26 10:05:25;;;;;;;0.30;0.30;;;;;;;7.75;62.89;99611.84;5030271;28;20248;-95
2021/11/26 10:07:54;;;;;;;0.35;0.35;;;;;;;7.80;62.88;99598.53;5007773;28;20030;-94
2021/11/26 10:10:25;;;;;;;0.10;0.10;;;;;;;7.82;62.66;99580.91;5033054;28;20084;-94
2021/11/26 10:13:12;;;;;;;0.15;0.15;;;;;;;8.01;62.19;99570.69;5032451;28;20149;-94
2021/11/26 10:18:33;;;;;;;0.10;0.10;;;;;;;7.94;62.44;99556.81;5075994;22;20080;-86
2021/11/26 10:21:03;;;;;;;0.10;0.10;;;;;;;7.94;62.01;99549.75;5049781;28;20033;-86
2021/11/26 10:23:33;;;;;;;0.10;0.10;;;;;;;8.03;61.92;99537.22;5028249;28;20038;-93
2021/11/26 10:26:21;;;;;;;1.45;1.40;;;;;;;7.94;61.88;99522.53;5014884;28;20042;-90
2021/11/26 10:28:53;;;;;;;0.10;0.10;;;;;;;8.04;61.57;99520.47;5024628;28;20108;-88
2021/11/26 10:31:45;;;;;;;0.30;0.30;;;;;;;8.02;62.32;99509.97;5012017;28;20086;-86
2021/11/26 10:34:12;;;;;;;;;;;;;;;8.19;61.81;99490.13;5029389;28;20101;-84
2021/11/26 10:36:46;;;;;;;0.15;0.15;;;;;;;8.04;61.57;99481.75;5026100;28;19917;-90
2021/11/26 10:39:17;;;;;;;0.43;0.43;;;;;;;8.03;61.96;99460.72;5020887;28;20029;-91
2021/11/26 10:41:49;;;;;;;0.10;0.10;;;;;;;7.95;62.03;99458.34;5029418;28;20025;-90
2021/11/26 10:44:19;;;;;;;;;;;;;;;8.20;62.18;99454.88;5011987;28;20172;-89
2021/11/26 10:47:21;;;;;;;0.63;0.63;;;;;;;8.09;62.25;99447.34;5029932;28;20387;-90
2021/11/26 10:49:42;;;;;;;0.15;0.15;;;;;;;8.10;61.63;99434.09;5028854;28;20045;-86
2021/11/26 10:58:01;;;;;;;1.10;1.10;;;;;;;7.85;61.84;99401.50;5046604;28;20036;-90
2021/11/26 11:00:27;;;;;;;0.10;0.10;;;;;;;7.99;61.76;99387.84;5044198;28;20037;-88
2021/11/26 11:02:57;;;;;;;0.10;0.10;;;;;;;7.94;62.29;99377.47;5026793;28;20382;-85
2021/11/26 11:08:26;;;;;;;0.10;0.10;;;;;;;7.93;61.96;99354.66;5081302;27;20460;-83
2021/11/26 11:10:54;;;;;;;0.10;0.10;;;;;;;7.96;61.71;99343.97;5089474;28;20043;-89
2021/11/26 11:13:29;;;;;;;0.10;0.10;;;;;;;8.00;61.76;99339.47;5088346;28;20036;-89
2021/11/26 11:16:07;;;;;;;0.10;0.10;;;;;;;7.93;62.26;99338.81;5069501;28;20029;-86
2021/11/26 11:18:33;;;;;;;0.10;0.10;;;;;;;8.09;61.70;99331.25;5062943;28;20040;-95
2021/11/26 11:21:00;;;;;;;0.10;0.10;;;;;;;8.10;61.80;99318.00;5060906;28;20033;-91
2021/11/26 11:23:26;;;;;;;0.10;0.10;;;;;;;7.96;61.48;99309.69;5067073;28;20033;-96
2021/11/26 11:25:52;;;;;;;0.65;0.65;;;;;;;8.04;62.39;99305.03;5068675;28;20091;-96
2021/11/26 11:28:19;;;;;;;0.10;0.10;;;;;;;7.99;62.15;99293.78;5065465;28;20484;-94
2021/11/26 11:30:45;;;;;;;0.45;0.45;;;;;;;8.02;62.50;99280.47;5066500;28;20083;-95
2021/11/26 11:33:13;;;;;;;0.10;0.10;;;;;;;8.00;62.36;99273.53;5069223;28;20049;-94
2021/11/26 11:35:44;;;;;;;0.10;0.10;;;;;;;8.00;62.53;99274.41;5066916;28;20056;-92
2021/11/26 11:38:11;;;;;;;0.10;0.10;;;;;;;7.99;62.90;99272.69;5072113;28;20511;-96
2021/11/26 11:40:42;;;;;;;0.22;0.22;;;;;;;7.91;63.43;99261.53;5061553;28;20427;-91
2021/11/26 11:43:12;;;;;;;0.20;0.20;;;;;;;8.00;63.27;99260.34;5065852;28;20024;-94
2021/11/26 11:45:41;;;;;;;0.38;0.38;;;;;;;7.93;62.95;99228.06;5058144;28;20033;-95
2021/11/26 11:48:09;;;;;;;0.10;0.10;;;;;;;8.05;62.62;99229.38;5065803;28;20029;-92
2021/11/26 11:50:45;;;;;;;0.20;0.20;;;;;;;8.09;62.49;99226.59;5058675;28;20025;-93